createdAt,value
2018-12-16T00:03:36.492Z,99107.00
2018-12-16T00:05:40.509Z,99100.00
2018-12-16T00:07:44.502Z,99112.00
2018-12-16T00:09:48.504Z,99112.00
2018-12-16T00:11:52.483Z,99107.00
2018-12-16T00:13:56.483Z,99109.00
2018-12-16T00:16:00.681Z,99110.00
2018-12-16T00:18:04.814Z,99119.00
2018-12-16T00:20:09.168Z,99116.00
2018-12-16T00:22:13.217Z,99109.00
2018-12-16T00:24:17.681Z,99127.00
2018-12-16T00:26:21.861Z,99104.00
2018-12-16T00:28:25.966Z,99110.00
2018-12-16T00:30:29.968Z,99119.00
2018-12-16T00:32:33.982Z,99117.00
2018-12-16T00:34:37.975Z,99125.00
2018-12-16T00:36:42.137Z,99122.00
2018-12-16T00:38:46.165Z,99130.00
2018-12-16T00:40:50.144Z,99132.00
2018-12-16T00:42:54.200Z,99115.00
2018-12-16T00:44:58.189Z,99127.00
2018-12-16T00:47:02.189Z,99131.00
2018-12-16T00:49:06.288Z,99120.00
2018-12-16T00:51:10.268Z,99128.00
2018-12-16T00:53:14.280Z,99120.00
2018-12-16T00:55:18.277Z,99123.00
2018-12-16T00:57:22.301Z,99125.00
2018-12-16T00:59:26.386Z,99132.00
2018-12-16T01:01:30.553Z,99127.00
2018-12-16T01:03:34.849Z,99130.00
2018-12-16T01:05:39.026Z,99126.00
2018-12-16T01:07:43.380Z,99118.00
2018-12-16T01:09:47.565Z,99128.00
2018-12-16T01:11:51.650Z,99129.00
2018-12-16T01:13:55.753Z,99127.00
2018-12-16T01:15:59.755Z,99122.00
2018-12-16T01:18:03.915Z,99112.00
2018-12-16T01:20:08.830Z,99109.00
2018-12-16T01:22:12.900Z,99115.00
2018-12-16T01:24:18.379Z,99111.00
2018-12-16T01:26:22.738Z,99085.00
2018-12-16T01:28:26.839Z,99092.00
2018-12-16T01:30:30.906Z,99090.00
2018-12-16T01:32:34.871Z,99077.00
2018-12-16T01:34:39.053Z,99070.00
2018-12-16T01:36:43.108Z,99064.00
2018-12-16T01:38:48.023Z,99061.00
2018-12-16T01:40:52.025Z,99053.00
2018-12-16T01:42:56.037Z,99052.00
2018-12-16T01:45:00.038Z,99028.00
2018-12-16T01:47:04.008Z,99035.00
2018-12-16T01:49:08.201Z,99034.00
2018-12-16T01:51:12.248Z,99040.00
2018-12-16T01:53:16.309Z,99034.00
2018-12-16T01:55:20.365Z,99035.00
2018-12-16T01:57:24.447Z,99037.00
2018-12-16T01:59:28.454Z,99042.00
2018-12-16T02:01:33.922Z,99037.00
2018-12-16T02:03:41.914Z,99038.00
2018-12-16T02:05:47.449Z,99032.00
2018-12-16T02:07:53.828Z,99024.00
2018-12-16T02:09:57.991Z,99012.00
2018-12-16T02:12:02.077Z,99017.00
2018-12-16T02:14:06.333Z,99017.00
2018-12-16T02:16:10.333Z,99009.00
2018-12-16T02:18:14.320Z,99005.00
2018-12-16T02:20:18.396Z,99005.00
2018-12-16T02:22:22.477Z,98997.00
2018-12-16T02:24:26.496Z,98983.00
2018-12-16T02:26:30.568Z,98979.00
2018-12-16T02:28:34.695Z,98968.00
2018-12-16T02:30:38.791Z,98968.00
2018-12-16T02:32:42.790Z,98972.00
2018-12-16T02:34:46.818Z,98980.00
2018-12-16T02:36:50.965Z,98973.00
2018-12-16T02:38:55.061Z,98965.00
2018-12-16T02:40:59.166Z,98968.00
2018-12-16T02:43:03.176Z,98968.00
2018-12-16T02:45:07.334Z,98963.00
2018-12-16T02:47:11.511Z,98950.00
2018-12-16T02:49:15.494Z,98938.00
2018-12-16T02:51:19.478Z,98936.00
2018-12-16T02:53:23.633Z,98927.00
2018-12-16T02:55:27.809Z,98932.00
2018-12-16T02:57:31.772Z,98930.00
2018-12-16T02:59:35.826Z,98936.00
2018-12-16T03:04:02.001Z,98909.00
2018-12-16T03:06:06.015Z,98906.00
2018-12-16T03:08:10.000Z,98897.00
2018-12-16T03:10:14.470Z,98880.00
2018-12-16T03:12:18.710Z,98878.00
2018-12-16T03:14:22.730Z,98877.00
2018-12-16T03:16:26.867Z,98893.00
2018-12-16T03:18:30.874Z,98870.00
2018-12-16T03:20:34.897Z,98871.00
2018-12-16T03:22:38.871Z,98860.00
2018-12-16T03:24:42.947Z,98859.00
2018-12-16T03:26:47.109Z,98863.00
2018-12-16T03:28:51.201Z,98864.00
2018-12-16T03:30:55.275Z,98854.00
2018-12-16T03:32:59.338Z,98854.00
2018-12-16T03:35:03.594Z,98851.00
2018-12-16T03:37:07.680Z,98851.00
2018-12-16T03:39:11.681Z,98850.00
2018-12-16T03:41:15.681Z,98843.00
2018-12-16T03:43:19.742Z,98855.00
2018-12-16T03:45:23.810Z,98841.00
2018-12-16T03:47:27.962Z,98836.00
2018-12-16T03:49:31.958Z,98839.00
2018-12-16T03:51:35.930Z,98837.00
2018-12-16T03:53:39.962Z,98845.00
2018-12-16T03:55:43.949Z,98840.00
2018-12-16T03:57:48.999Z,98831.00
2018-12-16T03:59:53.050Z,98826.00
2018-12-16T04:01:58.543Z,98826.00
2018-12-16T04:04:02.566Z,98828.00
2018-12-16T04:06:06.639Z,98827.00
2018-12-16T04:08:10.646Z,98834.00
2018-12-16T04:10:14.692Z,98833.00
2018-12-16T04:12:18.801Z,98830.00
2018-12-16T04:14:22.908Z,98826.00
2018-12-16T04:16:27.092Z,98822.00
2018-12-16T04:18:31.062Z,98816.00
2018-12-16T04:20:35.056Z,98830.00
2018-12-16T04:22:39.069Z,98830.00
2018-12-16T04:24:43.065Z,98835.00
2018-12-16T04:26:47.166Z,98826.00
2018-12-16T04:28:51.186Z,98826.00
2018-12-16T04:30:55.194Z,98813.00
2018-12-16T04:32:59.206Z,98821.00
2018-12-16T04:35:03.452Z,98818.00
2018-12-16T04:37:07.617Z,98825.00
2018-12-16T04:39:11.898Z,98820.00
2018-12-16T04:41:15.953Z,98818.00
2018-12-16T04:43:19.964Z,98818.00
2018-12-16T04:45:24.005Z,98810.00
2018-12-16T04:47:28.125Z,98805.00
2018-12-16T04:49:32.196Z,98816.00
2018-12-16T04:51:36.207Z,98809.00
2018-12-16T04:53:40.311Z,98816.00
2018-12-16T04:55:44.519Z,98814.00
2018-12-16T04:57:48.572Z,98814.00
2018-12-16T04:59:52.670Z,98805.00
2018-12-16T05:01:56.741Z,98806.00
2018-12-16T05:04:00.820Z,98785.00
2018-12-16T05:06:05.044Z,98806.00
2018-12-16T05:08:09.117Z,98806.00
2018-12-16T05:10:28.829Z,98798.00
2018-12-16T05:12:32.841Z,98800.00
2018-12-16T05:14:36.948Z,98796.00
2018-12-16T05:16:40.977Z,98796.00
2018-12-16T05:18:44.977Z,98795.00
2018-12-16T05:20:48.985Z,98802.00
2018-12-16T05:22:53.003Z,98803.00
2018-12-16T05:24:57.016Z,98800.00
2018-12-16T05:27:01.008Z,98793.00
2018-12-16T05:29:05.609Z,98795.00
2018-12-16T05:31:09.626Z,98792.00
2018-12-16T05:33:13.622Z,98779.00
2018-12-16T05:35:17.692Z,98787.00
2018-12-16T05:37:21.788Z,98782.00
2018-12-16T05:39:25.801Z,98787.00
2018-12-16T05:41:29.864Z,98787.00
2018-12-16T05:43:33.866Z,98795.00
2018-12-16T05:45:37.977Z,98773.00
2018-12-16T05:47:42.055Z,98775.00
2018-12-16T05:49:46.640Z,98793.00
2018-12-16T05:51:50.667Z,98793.00
2018-12-16T05:53:54.762Z,98783.00
2018-12-16T05:56:04.154Z,98784.00
2018-12-16T05:58:08.153Z,98792.00
2018-12-16T06:00:12.485Z,98774.00
2018-12-16T06:02:16.497Z,98777.00
2018-12-16T06:04:20.507Z,98787.00
2018-12-16T06:06:24.521Z,98805.00
2018-12-16T06:08:28.541Z,98809.00
2018-12-16T06:10:32.568Z,98814.00
2018-12-16T06:12:36.568Z,98804.00
2018-12-16T06:14:40.606Z,98820.00
2018-12-16T06:16:44.723Z,98811.00
2018-12-16T06:18:48.736Z,98818.00
2018-12-16T06:20:52.790Z,98817.00
2018-12-16T06:22:56.848Z,98813.00
2018-12-16T06:25:00.857Z,98817.00
2018-12-16T06:27:05.015Z,98815.00
2018-12-16T06:29:09.071Z,98814.00
2018-12-16T06:31:13.171Z,98808.00
2018-12-16T06:33:17.294Z,98794.00
2018-12-16T06:35:21.283Z,98799.00
2018-12-16T06:37:25.288Z,98803.00
2018-12-16T06:39:29.394Z,98800.00
2018-12-16T06:41:33.474Z,98787.00
2018-12-16T06:43:37.567Z,98808.00
2018-12-16T06:45:41.671Z,98808.00
2018-12-16T06:47:45.678Z,98801.00
2018-12-16T06:49:49.717Z,98808.00
2018-12-16T06:51:53.713Z,98806.00
2018-12-16T06:54:02.438Z,98804.00
2018-12-16T06:56:06.640Z,98799.00
2018-12-16T06:58:09.890Z,98798.00
2018-12-16T07:00:14.086Z,98809.00
2018-12-16T07:02:18.093Z,98805.00
2018-12-16T07:04:22.102Z,98808.00
2018-12-16T07:06:26.174Z,98811.00
2018-12-16T07:08:30.289Z,98810.00
2018-12-16T07:10:34.401Z,98811.00
2018-12-16T07:12:38.669Z,98805.00
2018-12-16T07:14:42.664Z,98817.00
2018-12-16T07:16:46.932Z,98809.00
2018-12-16T07:18:50.955Z,98822.00
2018-12-16T07:20:55.071Z,98824.00
2018-12-16T07:22:59.102Z,98817.00
2018-12-16T07:25:03.497Z,98822.00
2018-12-16T07:27:07.519Z,98834.00
2018-12-16T07:29:11.600Z,98831.00
2018-12-16T07:31:15.812Z,98825.00
2018-12-16T07:33:20.090Z,98819.00
2018-12-16T07:35:24.333Z,98837.00
2018-12-16T07:37:28.495Z,98831.00
2018-12-16T07:39:32.694Z,98828.00
2018-12-16T07:41:36.795Z,98825.00
2018-12-16T07:43:40.797Z,98828.00
2018-12-16T07:45:44.939Z,98829.00
2018-12-16T07:47:49.002Z,98830.00
2018-12-16T07:49:53.069Z,98830.00
2018-12-16T07:51:57.297Z,98831.00
2018-12-16T07:54:01.369Z,98853.00
2018-12-16T07:56:05.485Z,98844.00
2018-12-16T07:58:09.565Z,98844.00
2018-12-16T08:00:13.846Z,98851.00
2018-12-16T08:02:17.949Z,98847.00
2018-12-16T08:04:21.990Z,98846.00
2018-12-16T08:06:26.065Z,98842.00
2018-12-16T08:08:30.073Z,98848.00
2018-12-16T08:10:34.096Z,98849.00
2018-12-16T08:12:38.233Z,98854.00
2018-12-16T08:14:42.229Z,98860.00
2018-12-16T08:16:46.259Z,98857.00
2018-12-16T08:18:50.269Z,98862.00
2018-12-16T08:20:54.281Z,98859.00
2018-12-16T08:22:58.313Z,98865.00
2018-12-16T08:25:02.413Z,98858.00
2018-12-16T08:27:06.501Z,98866.00
2018-12-16T08:29:10.509Z,98859.00
2018-12-16T08:31:14.526Z,98864.00
2018-12-16T08:33:18.492Z,98861.00
2018-12-16T08:35:22.554Z,98858.00
2018-12-16T08:37:26.945Z,98859.00
2018-12-16T08:39:30.957Z,98864.00
2018-12-16T08:41:35.003Z,98847.00
2018-12-16T08:43:39.106Z,98854.00
2018-12-16T08:45:43.153Z,98858.00
2018-12-16T08:47:47.160Z,98866.00
2018-12-16T08:49:51.606Z,98857.00
2018-12-16T08:51:55.601Z,98871.00
2018-12-16T08:53:59.799Z,98863.00
2018-12-16T08:56:04.091Z,98866.00
2018-12-16T08:58:08.226Z,98870.00
2018-12-16T09:00:12.522Z,98869.00
2018-12-16T09:02:16.674Z,98859.00
2018-12-16T09:04:20.793Z,98866.00
2018-12-16T09:06:25.435Z,98868.00
2018-12-16T09:08:29.464Z,98881.00
2018-12-16T09:10:34.313Z,98873.00
2018-12-16T09:12:38.692Z,98879.00
2018-12-16T09:14:42.746Z,98881.00
2018-12-16T09:16:46.883Z,98881.00
2018-12-16T09:18:50.877Z,98882.00
2018-12-16T09:20:54.873Z,98876.00
2018-12-16T09:22:58.910Z,98892.00
2018-12-16T09:25:02.993Z,98890.00
2018-12-16T09:27:07.233Z,98883.00
2018-12-16T09:29:11.238Z,98886.00
2018-12-16T09:31:15.270Z,98891.00
2018-12-16T09:33:19.334Z,98878.00
2018-12-16T09:35:23.356Z,98884.00
2018-12-16T09:37:27.433Z,98880.00
2018-12-16T09:39:31.449Z,98882.00
2018-12-16T09:41:35.454Z,98895.00
2018-12-16T09:43:39.593Z,98887.00
2018-12-16T09:45:49.433Z,98884.00
2018-12-16T09:47:50.017Z,98882.00
2018-12-16T09:49:54.121Z,98884.00
2018-12-16T09:51:58.278Z,98878.00
2018-12-16T09:54:02.283Z,98882.00
2018-12-16T09:56:06.413Z,98871.00
2018-12-16T09:58:10.516Z,98873.00
2018-12-16T10:00:14.869Z,98867.00
2018-12-16T10:02:18.903Z,98870.00
2018-12-16T10:04:23.130Z,98865.00
2018-12-16T10:06:27.319Z,98865.00
2018-12-16T10:08:31.335Z,98869.00
2018-12-16T10:10:35.404Z,98866.00
2018-12-16T10:12:39.473Z,98867.00
2018-12-16T10:14:43.502Z,98858.00
2018-12-16T10:16:47.600Z,98865.00
2018-12-16T10:18:51.664Z,98859.00
2018-12-16T10:20:55.745Z,98859.00
2018-12-16T10:22:59.759Z,98856.00
2018-12-16T10:25:04.095Z,98854.00
2018-12-16T10:27:08.100Z,98846.00
2018-12-16T10:29:12.142Z,98858.00
2018-12-16T10:31:16.258Z,98851.00
2018-12-16T10:33:20.280Z,98846.00
2018-12-16T10:35:24.277Z,98855.00
2018-12-16T10:37:28.301Z,98849.00
2018-12-16T10:39:32.373Z,98858.00
2018-12-16T10:41:36.507Z,98839.00
2018-12-16T10:43:40.648Z,98839.00
2018-12-16T10:45:44.769Z,98843.00
2018-12-16T10:47:48.784Z,98841.00
2018-12-16T10:49:52.883Z,98847.00
2018-12-16T10:51:56.914Z,98852.00
2018-12-16T10:54:00.944Z,98844.00
2018-12-16T10:56:05.265Z,98844.00
2018-12-16T10:58:09.270Z,98851.00
2018-12-16T11:00:19.758Z,98844.00
2018-12-16T11:02:23.788Z,98849.00
2018-12-16T11:04:27.797Z,98851.00
2018-12-16T11:06:31.812Z,98849.00
2018-12-16T11:08:36.219Z,98851.00
2018-12-16T11:10:40.370Z,98841.00
2018-12-16T11:12:44.909Z,98849.00
2018-12-16T11:14:48.952Z,98837.00
2018-12-16T11:16:53.667Z,98842.00
2018-12-16T11:18:57.870Z,98835.00
2018-12-16T11:21:01.872Z,98832.00
2018-12-16T11:23:05.897Z,98841.00
2018-12-16T11:25:13.722Z,98839.00
2018-12-16T11:27:17.745Z,98839.00
2018-12-16T11:29:21.799Z,98841.00
2018-12-16T11:31:26.054Z,98842.00
2018-12-16T11:33:30.092Z,98841.00
2018-12-16T11:35:34.134Z,98838.00
2018-12-16T11:37:38.244Z,98793.00
2018-12-16T11:39:42.475Z,98845.00
2018-12-16T11:41:46.496Z,98837.00
2018-12-16T11:43:50.546Z,98842.00
2018-12-16T11:45:54.686Z,98848.00
2018-12-16T11:47:58.756Z,98846.00
2018-12-16T11:50:02.845Z,98844.00
2018-12-16T11:52:07.239Z,98849.00
2018-12-16T11:54:11.337Z,98834.00
2018-12-16T11:56:15.463Z,98835.00
2018-12-16T11:58:19.521Z,98834.00
2018-12-16T12:00:23.636Z,98826.00
2018-12-16T12:02:32.846Z,98831.00
2018-12-16T12:04:33.977Z,98823.00
2018-12-16T12:06:38.004Z,98823.00
2018-12-16T12:08:42.080Z,98831.00
2018-12-16T12:10:46.391Z,98829.00
2018-12-16T12:12:50.431Z,98820.00
2018-12-16T12:14:54.554Z,98819.00
2018-12-16T12:16:58.587Z,98823.00
2018-12-16T12:19:02.965Z,98828.00
2018-12-16T12:21:07.149Z,98829.00
2018-12-16T12:23:11.232Z,98826.00
2018-12-16T12:25:19.870Z,98828.00
2018-12-16T12:27:21.453Z,98822.00
2018-12-16T12:29:25.633Z,98826.00
2018-12-16T12:31:29.731Z,98820.00
2018-12-16T12:33:33.802Z,98817.00
2018-12-16T12:35:37.922Z,98811.00
2018-12-16T12:37:42.013Z,98821.00
2018-12-16T12:39:46.241Z,98819.00
2018-12-16T12:41:50.333Z,98814.00
2018-12-16T12:43:54.316Z,98820.00
2018-12-16T12:45:58.344Z,98822.00
2018-12-16T12:48:02.578Z,98817.00
2018-12-16T12:50:08.289Z,98822.00
2018-12-16T12:52:12.343Z,98819.00
2018-12-16T12:54:16.626Z,98826.00
2018-12-16T12:56:20.677Z,98819.00
2018-12-16T12:58:24.757Z,98818.00
2018-12-16T13:00:28.810Z,98829.00
2018-12-16T13:02:32.828Z,98826.00
2018-12-16T13:04:36.928Z,98826.00
2018-12-16T13:06:41.138Z,98825.00
2018-12-16T13:08:45.238Z,98832.00
2018-12-16T13:10:49.377Z,98836.00
2018-12-16T13:12:53.462Z,98842.00
2018-12-16T13:14:57.460Z,98832.00
2018-12-16T13:17:01.570Z,98827.00
2018-12-16T13:19:05.751Z,98829.00
2018-12-16T13:21:09.772Z,98826.00
2018-12-16T13:23:14.029Z,98832.00
2018-12-16T13:25:35.744Z,98827.00
2018-12-16T13:27:39.877Z,98833.00
2018-12-16T13:29:43.901Z,98842.00
2018-12-16T13:31:47.944Z,98837.00
2018-12-16T13:33:52.128Z,98833.00
2018-12-16T13:35:56.285Z,98842.00
2018-12-16T13:38:00.441Z,98840.00
2018-12-16T13:40:05.321Z,98825.00
2018-12-16T13:42:09.374Z,98848.00
2018-12-16T13:44:13.465Z,98837.00
2018-12-16T13:46:17.590Z,98837.00
2018-12-16T13:48:21.599Z,98834.00
2018-12-16T13:50:25.681Z,98833.00
2018-12-16T13:52:29.734Z,98840.00
2018-12-16T13:54:33.740Z,98844.00
2018-12-16T13:56:37.813Z,98851.00
2018-12-16T13:58:42.333Z,98847.00
2018-12-16T14:00:46.430Z,98839.00
2018-12-16T14:02:50.492Z,98834.00
2018-12-16T14:04:54.589Z,98831.00
2018-12-16T14:06:58.708Z,98825.00
2018-12-16T14:09:03.451Z,98834.00
2018-12-16T14:11:07.502Z,98840.00
2018-12-16T14:13:11.624Z,98851.00
2018-12-16T14:15:15.756Z,98849.00
2018-12-16T14:17:19.809Z,98856.00
2018-12-16T14:19:23.845Z,98856.00
2018-12-16T14:21:27.956Z,98853.00
2018-12-16T14:23:32.022Z,98850.00
2018-12-16T14:25:36.066Z,98858.00
2018-12-16T14:27:40.249Z,98857.00
2018-12-16T14:29:44.414Z,98861.00
2018-12-16T14:31:48.526Z,98864.00
2018-12-16T14:33:52.631Z,98861.00
2018-12-16T14:35:56.707Z,98858.00
2018-12-16T14:38:01.125Z,98854.00
2018-12-16T14:40:06.910Z,98855.00
2018-12-16T14:42:11.095Z,98856.00
2018-12-16T14:44:15.245Z,98866.00
2018-12-16T14:46:19.327Z,98866.00
2018-12-16T14:48:23.492Z,98869.00
2018-12-16T14:50:27.647Z,98873.00
2018-12-16T14:52:31.725Z,98865.00
2018-12-16T14:56:52.132Z,98869.00
2018-12-16T14:58:56.225Z,98870.00
2018-12-16T15:01:00.409Z,98871.00
2018-12-16T15:03:04.558Z,98876.00
2018-12-16T15:05:09.613Z,98870.00
2018-12-16T15:07:13.698Z,98872.00
2018-12-16T15:09:17.774Z,98873.00
2018-12-16T15:11:21.804Z,98876.00
2018-12-16T15:13:25.958Z,98891.00
2018-12-16T15:15:30.018Z,98892.00
2018-12-16T15:17:34.166Z,98893.00
2018-12-16T15:19:38.266Z,98892.00
2018-12-16T15:21:43.797Z,98901.00
2018-12-16T15:23:48.044Z,98891.00
2018-12-16T15:25:52.233Z,98897.00
2018-12-16T15:27:56.489Z,98902.00
2018-12-16T15:30:00.559Z,98901.00
2018-12-16T15:32:04.705Z,98905.00
2018-12-16T15:34:09.753Z,98909.00
2018-12-16T15:36:14.048Z,98907.00
2018-12-16T15:38:18.216Z,98914.00
2018-12-16T15:40:22.366Z,98914.00
2018-12-16T15:42:26.433Z,98912.00
2018-12-16T15:44:30.605Z,98916.00
2018-12-16T15:46:34.650Z,98914.00
2018-12-16T15:48:38.709Z,98914.00
2018-12-16T15:50:42.853Z,98928.00
2018-12-16T15:52:46.892Z,98921.00
2018-12-16T15:54:50.967Z,98923.00
2018-12-16T15:56:55.026Z,98920.00
2018-12-16T15:58:59.491Z,98923.00
2018-12-16T16:01:03.716Z,98916.00
2018-12-16T16:03:07.777Z,98930.00
2018-12-16T16:05:11.810Z,98922.00
2018-12-16T16:07:15.976Z,98924.00
2018-12-16T16:09:20.039Z,98926.00
2018-12-16T16:11:24.086Z,98933.00
2018-12-16T16:13:28.169Z,98928.00
2018-12-16T16:15:32.241Z,98927.00
2018-12-16T16:17:36.306Z,98933.00
2018-12-16T16:19:40.456Z,98930.00
2018-12-16T16:21:44.743Z,98943.00
2018-12-16T16:23:48.778Z,98945.00
2018-12-16T16:25:52.861Z,98947.00
2018-12-16T16:27:57.049Z,98953.00
2018-12-16T16:30:01.185Z,98948.00
2018-12-16T16:32:05.461Z,98949.00
2018-12-16T16:34:09.541Z,98944.00
2018-12-16T16:36:13.600Z,98951.00
2018-12-16T16:38:17.654Z,98944.00
2018-12-16T16:40:21.946Z,98938.00
2018-12-16T16:42:26.167Z,98945.00
2018-12-16T16:44:30.353Z,98935.00
2018-12-16T16:46:34.456Z,98931.00
2018-12-16T16:48:39.263Z,98938.00
2018-12-16T16:50:43.389Z,98940.00
2018-12-16T16:52:47.468Z,98945.00
2018-12-16T16:54:51.548Z,98941.00
2018-12-16T16:56:55.659Z,98943.00
2018-12-16T16:58:59.995Z,98946.00
2018-12-16T17:01:04.205Z,98946.00
2018-12-16T17:03:08.261Z,98952.00
2018-12-16T17:05:12.454Z,98939.00
2018-12-16T17:07:16.565Z,98958.00
2018-12-16T17:09:20.617Z,98952.00
2018-12-16T17:13:40.620Z,98950.00
2018-12-16T17:15:44.721Z,98954.00
2018-12-16T17:17:48.796Z,98951.00
2018-12-16T17:19:52.886Z,98952.00
2018-12-16T17:21:58.386Z,98959.00
2018-12-16T17:24:02.556Z,98963.00
2018-12-16T17:26:07.187Z,98960.00
2018-12-16T17:28:11.316Z,98958.00
2018-12-16T17:30:15.542Z,98964.00
2018-12-16T17:32:21.712Z,98968.00
2018-12-16T17:34:25.945Z,98957.00
2018-12-16T17:36:30.093Z,98954.00
2018-12-16T17:38:34.237Z,98963.00
2018-12-16T17:40:38.389Z,98972.00
2018-12-16T17:42:42.479Z,98967.00
2018-12-16T17:44:46.720Z,98969.00
2018-12-16T17:46:50.745Z,98968.00
2018-12-16T17:48:54.840Z,98974.00
2018-12-16T17:50:58.947Z,98968.00
2018-12-16T17:53:03.034Z,98977.00
2018-12-16T17:55:07.714Z,98981.00
2018-12-16T17:57:11.823Z,98987.00
2018-12-16T17:59:18.068Z,98987.00
2018-12-16T18:01:21.978Z,98982.00
2018-12-16T18:03:26.022Z,98984.00
2018-12-16T18:05:30.065Z,98985.00
2018-12-16T18:07:34.089Z,98985.00
2018-12-16T18:09:38.201Z,98979.00
2018-12-16T18:11:42.272Z,98990.00
2018-12-16T18:13:46.432Z,98991.00
2018-12-16T18:15:50.510Z,98990.00
2018-12-16T18:17:54.687Z,98990.00
2018-12-16T18:19:58.751Z,98993.00
2018-12-16T18:22:02.922Z,98998.00
2018-12-16T18:24:07.062Z,98998.00
2018-12-16T18:26:11.239Z,98994.00
2018-12-16T18:28:15.271Z,98988.00
2018-12-16T18:30:19.634Z,98995.00
2018-12-16T18:32:23.673Z,98994.00
2018-12-16T18:34:27.714Z,98995.00
2018-12-16T18:36:31.833Z,98997.00
2018-12-16T18:38:36.003Z,99001.00
2018-12-16T18:40:40.080Z,98994.00
2018-12-16T18:42:44.192Z,98997.00
2018-12-16T18:44:48.273Z,98998.00
2018-12-16T18:46:52.457Z,98993.00
2018-12-16T18:48:56.630Z,98988.00
2018-12-16T18:51:00.792Z,98980.00
2018-12-16T18:53:04.922Z,98996.00
2018-12-16T18:55:09.205Z,99001.00
2018-12-16T18:57:13.504Z,99002.00
2018-12-16T18:59:17.657Z,98996.00
2018-12-16T19:01:21.720Z,98986.00
2018-12-16T19:03:25.778Z,98995.00
2018-12-16T19:05:29.855Z,98995.00
2018-12-16T19:07:34.182Z,98999.00
2018-12-16T19:09:38.325Z,99001.00
2018-12-16T19:11:42.369Z,98998.00
2018-12-16T19:13:46.451Z,98999.00
2018-12-16T19:15:50.630Z,98994.00
2018-12-16T19:17:54.737Z,99011.00
2018-12-16T19:19:58.908Z,99008.00
2018-12-16T19:22:02.946Z,99006.00
2018-12-16T19:24:07.165Z,99021.00
2018-12-16T19:26:11.223Z,99004.00
2018-12-16T19:28:15.283Z,99005.00
2018-12-16T19:30:19.408Z,99006.00
2018-12-16T19:32:23.635Z,99010.00
2018-12-16T19:34:28.148Z,99019.00
2018-12-16T19:36:32.202Z,99025.00
2018-12-16T19:38:38.290Z,99021.00
2018-12-16T19:40:42.361Z,99028.00
2018-12-16T19:42:46.435Z,99030.00
2018-12-16T19:44:50.479Z,99041.00
2018-12-16T19:46:54.628Z,99041.00
2018-12-16T19:48:58.735Z,99042.00
2018-12-16T19:51:02.869Z,99056.00
2018-12-16T19:53:06.937Z,99053.00
2018-12-16T19:55:11.180Z,99047.00
2018-12-16T19:57:15.460Z,99059.00
2018-12-16T19:59:19.556Z,99068.00
2018-12-16T20:01:23.666Z,99064.00
2018-12-16T20:03:27.717Z,99059.00
2018-12-16T20:05:33.730Z,99061.00
2018-12-16T20:07:37.863Z,99064.00
2018-12-16T20:09:42.019Z,99067.00
2018-12-16T20:11:46.146Z,99069.00
2018-12-16T20:13:50.183Z,99072.00
2018-12-16T20:15:54.305Z,99080.00
2018-12-16T20:17:58.373Z,99074.00
2018-12-16T20:20:02.624Z,99081.00
2018-12-16T20:22:06.898Z,99081.00
2018-12-16T20:24:10.947Z,99080.00
2018-12-16T20:26:15.009Z,99088.00
2018-12-16T20:28:19.042Z,99085.00
2018-12-16T20:30:23.249Z,99091.00
2018-12-16T20:32:27.436Z,99092.00
2018-12-16T20:34:31.703Z,99095.00
2018-12-16T20:36:35.736Z,99091.00
2018-12-16T20:38:39.995Z,99092.00
2018-12-16T20:40:44.270Z,99102.00
2018-12-16T20:42:48.912Z,99090.00
2018-12-16T20:44:52.957Z,99094.00
2018-12-16T20:46:57.043Z,99085.00
2018-12-16T20:49:01.161Z,99092.00
2018-12-16T20:51:05.214Z,99093.00
2018-12-16T20:53:09.353Z,99094.00
2018-12-16T20:55:13.442Z,99095.00
2018-12-16T20:57:18.986Z,99095.00
2018-12-16T20:59:23.127Z,99099.00
2018-12-16T21:01:27.245Z,99095.00
2018-12-16T21:03:31.349Z,99085.00
2018-12-16T21:05:35.497Z,99101.00
2018-12-16T21:07:39.605Z,99092.00
2018-12-16T21:09:43.756Z,99102.00
2018-12-16T21:12:12.324Z,99105.00
2018-12-16T21:14:21.804Z,99096.00
2018-12-16T21:16:31.361Z,99103.00
2018-12-16T21:18:36.121Z,99093.00
2018-12-16T21:20:40.160Z,99092.00
2018-12-16T21:22:44.257Z,99098.00
2018-12-16T21:24:48.376Z,99098.00
2018-12-16T21:26:52.545Z,99107.00
2018-12-16T21:28:56.686Z,99095.00
2018-12-16T21:31:00.767Z,99108.00
2018-12-16T21:33:11.341Z,99102.00
2018-12-16T21:35:15.402Z,99103.00
2018-12-16T21:37:19.445Z,99112.00
2018-12-16T21:39:23.485Z,99101.00
2018-12-16T21:41:27.657Z,99104.00
2018-12-16T21:43:31.705Z,99116.00
2018-12-16T21:45:35.933Z,99117.00
2018-12-16T21:47:40.018Z,99121.00
2018-12-16T21:49:44.167Z,99126.00
2018-12-16T21:51:48.204Z,99128.00
2018-12-16T21:53:52.265Z,99122.00
2018-12-16T21:55:56.337Z,99115.00
2018-12-16T21:58:00.473Z,99126.00
2018-12-16T22:00:07.439Z,99116.00
2018-12-16T22:02:11.579Z,99126.00
2018-12-16T22:04:15.618Z,99125.00
2018-12-16T22:06:19.697Z,99123.00
2018-12-16T22:08:24.069Z,99124.00
2018-12-16T22:10:28.263Z,99134.00
2018-12-16T22:12:32.297Z,99131.00
2018-12-16T22:14:36.434Z,99122.00
2018-12-16T22:16:40.664Z,99125.00
2018-12-16T22:18:44.727Z,99133.00
2018-12-16T22:20:49.093Z,99135.00
2018-12-16T22:22:53.199Z,99136.00
2018-12-16T22:24:57.236Z,99128.00
2018-12-16T22:27:01.293Z,99131.00
2018-12-16T22:29:05.397Z,99130.00
2018-12-16T22:31:09.529Z,99128.00
2018-12-16T22:33:13.562Z,99138.00
2018-12-16T22:35:17.687Z,99137.00
2018-12-16T22:37:21.927Z,99144.00
2018-12-16T22:39:26.116Z,99137.00
2018-12-16T22:41:30.199Z,99138.00
2018-12-16T22:43:34.246Z,99137.00
2018-12-16T22:45:38.312Z,99149.00
2018-12-16T22:47:42.333Z,99137.00
2018-12-16T22:49:46.458Z,99138.00
2018-12-16T22:51:50.493Z,99138.00
2018-12-16T22:53:54.593Z,99132.00
2018-12-16T22:55:58.629Z,99136.00
2018-12-16T22:58:02.698Z,99139.00
2018-12-16T23:00:10.892Z,99137.00
2018-12-16T23:02:15.061Z,99129.00
2018-12-16T23:04:19.215Z,99128.00
2018-12-16T23:06:23.300Z,99125.00
2018-12-16T23:08:27.337Z,99126.00
2018-12-16T23:10:31.389Z,99124.00
2018-12-16T23:12:35.522Z,99128.00
2018-12-16T23:14:39.724Z,99121.00
2018-12-16T23:16:43.837Z,99123.00
2018-12-16T23:18:48.140Z,99137.00
2018-12-16T23:20:52.298Z,99131.00
2018-12-16T23:22:56.864Z,99133.00
2018-12-16T23:25:01.024Z,99133.00
2018-12-16T23:27:05.354Z,99133.00
2018-12-16T23:29:09.388Z,99137.00
2018-12-16T23:31:13.768Z,99132.00
2018-12-16T23:33:17.798Z,99130.00
2018-12-16T23:35:21.960Z,99134.00
2018-12-16T23:37:26.109Z,99144.00
2018-12-16T23:39:30.165Z,99151.00
2018-12-16T23:41:34.251Z,99155.00
2018-12-16T23:43:38.275Z,99163.00
2018-12-16T23:45:42.468Z,99160.00
2018-12-16T23:47:46.522Z,99155.00
2018-12-16T23:49:50.566Z,99151.00
2018-12-16T23:51:54.654Z,99156.00
2018-12-16T23:53:58.709Z,99161.00
2018-12-16T23:56:02.732Z,99161.00
2018-12-16T23:58:06.779Z,99162.00
